sensor_id;sensor_type;location;lat;lon;timestamp;pressure;altitude;pressure_sealevel;temperature;humidity
77877;BME280;67251;50.844;7.978;2023-12-04T00:00:23;98857.59;;;-3.99;94.88
77877;BME280;67251;50.844;7.978;2023-12-04T00:02:49;98842.88;;;-4.00;94.97
77877;BME280;67251;50.844;7.978;2023-12-04T00:05:14;98855.06;;;-4.00;95.93
77877;BME280;67251;50.844;7.978;2023-12-04T00:07:39;98850.09;;;-4.03;95.69
77877;BME280;67251;50.844;7.978;2023-12-04T00:10:05;98847.69;;;-4.06;96.35
77877;BME280;67251;50.844;7.978;2023-12-04T00:12:31;98848.84;;;-4.11;96.30
77877;BME280;67251;50.844;7.978;2023-12-04T00:14:56;98839.34;;;-4.12;95.46
77877;BME280;67251;50.844;7.978;2023-12-04T00:17:22;98843.84;;;-4.14;95.39
77877;BME280;67251;50.844;7.978;2023-12-04T00:19:47;98844.06;;;-4.17;95.84
77877;BME280;67251;50.844;7.978;2023-12-04T00:22:12;98845.84;;;-4.17;96.21
77877;BME280;67251;50.844;7.978;2023-12-04T00:24:38;98842.28;;;-4.16;96.09
77877;BME280;67251;50.844;7.978;2023-12-04T00:27:04;98837.88;;;-4.16;96.39
77877;BME280;67251;50.844;7.978;2023-12-04T00:29:29;98836.94;;;-4.15;96.63
77877;BME280;67251;50.844;7.978;2023-12-04T00:31:55;98835.06;;;-4.13;96.45
77877;BME280;67251;50.844;7.978;2023-12-04T00:34:22;98838.38;;;-4.11;95.60
77877;BME280;67251;50.844;7.978;2023-12-04T00:36:47;98827.72;;;-4.07;94.89
77877;BME280;67251;50.844;7.978;2023-12-04T00:39:13;98828.56;;;-4.07;95.31
77877;BME280;67251;50.844;7.978;2023-12-04T00:41:38;98824.28;;;-4.08;95.63
77877;BME280;67251;50.844;7.978;2023-12-04T00:44:04;98824.38;;;-4.09;96.07
77877;BME280;67251;50.844;7.978;2023-12-04T00:46:29;98826.28;;;-4.12;95.80
77877;BME280;67251;50.844;7.978;2023-12-04T00:48:54;98817.28;;;-4.07;95.71
77877;BME280;67251;50.844;7.978;2023-12-04T00:51:20;98815.38;;;-4.05;94.57
77877;BME280;67251;50.844;7.978;2023-12-04T00:53:45;98804.91;;;-4.05;94.64
77877;BME280;67251;50.844;7.978;2023-12-04T00:56:10;98805.75;;;-4.05;94.53
77877;BME280;67251;50.844;7.978;2023-12-04T00:58:36;98798.84;;;-4.06;94.60
77877;BME280;67251;50.844;7.978;2023-12-04T01:01:01;98792.09;;;-4.08;94.54
77877;BME280;67251;50.844;7.978;2023-12-04T01:03:27;98792.31;;;-4.12;94.98
77877;BME280;67251;50.844;7.978;2023-12-04T01:05:52;98794.41;;;-4.17;95.17
77877;BME280;67251;50.844;7.978;2023-12-04T01:08:18;98788.69;;;-4.22;95.95
77877;BME280;67251;50.844;7.978;2023-12-04T01:10:43;98794.94;;;-4.24;95.46
77877;BME280;67251;50.844;7.978;2023-12-04T01:13:08;98788.91;;;-4.25;95.53
77877;BME280;67251;50.844;7.978;2023-12-04T01:15:34;98785.66;;;-4.28;95.61
77877;BME280;67251;50.844;7.978;2023-12-04T01:17:59;98779.94;;;-4.33;96.06
77877;BME280;67251;50.844;7.978;2023-12-04T01:20:26;98774.13;;;-4.37;96.35
77877;BME280;67251;50.844;7.978;2023-12-04T01:22:51;98765.78;;;-4.42;96.62
77877;BME280;67251;50.844;7.978;2023-12-04T01:25:17;98770.38;;;-4.46;96.89
77877;BME280;67251;50.844;7.978;2023-12-04T01:27:42;98766.81;;;-4.45;96.71
77877;BME280;67251;50.844;7.978;2023-12-04T01:30:08;98773.19;;;-4.49;97.14
77877;BME280;67251;50.844;7.978;2023-12-04T01:32:36;98769.13;;;-4.53;97.42
77877;BME280;67251;50.844;7.978;2023-12-04T01:35:02;98767.13;;;-4.49;96.99
77877;BME280;67251;50.844;7.978;2023-12-04T01:37:27;98765.03;;;-4.44;96.75
77877;BME280;67251;50.844;7.978;2023-12-04T01:39:53;98762.22;;;-4.41;97.03
77877;BME280;67251;50.844;7.978;2023-12-04T01:45:12;98764.81;;;-4.41;96.83
77877;BME280;67251;50.844;7.978;2023-12-04T01:47:37;98763.03;;;-4.41;97.05
77877;BME280;67251;50.844;7.978;2023-12-04T01:50:05;98758.66;;;-4.40;97.00
77877;BME280;67251;50.844;7.978;2023-12-04T01:52:30;98761.25;;;-4.40;96.38
77877;BME280;67251;50.844;7.978;2023-12-04T01:54:56;98751.84;;;-4.43;96.75
77877;BME280;67251;50.844;7.978;2023-12-04T01:57:22;98745.78;;;-4.43;96.65
77877;BME280;67251;50.844;7.978;2023-12-04T01:59:47;98749.47;;;-4.46;96.93
77877;BME280;67251;50.844;7.978;2023-12-04T02:02:13;98745.91;;;-4.45;96.43
77877;BME280;67251;50.844;7.978;2023-12-04T02:04:39;98759.09;;;-4.46;96.54
77877;BME280;67251;50.844;7.978;2023-12-04T02:07:04;98753.97;;;-4.48;97.01
77877;BME280;67251;50.844;7.978;2023-12-04T02:09:30;98748.53;;;-4.45;96.15
77877;BME280;67251;50.844;7.978;2023-12-04T02:11:56;98750.09;;;-4.42;95.71
77877;BME280;67251;50.844;7.978;2023-12-04T02:14:22;98731.28;;;-4.47;95.98
77877;BME280;67251;50.844;7.978;2023-12-04T02:16:48;98739.44;;;-4.52;96.44
77877;BME280;67251;50.844;7.978;2023-12-04T02:19:14;98729.41;;;-4.45;95.69
77877;BME280;67251;50.844;7.978;2023-12-04T02:21:40;98733.19;;;-4.49;95.54
77877;BME280;67251;50.844;7.978;2023-12-04T02:24:05;98728.19;;;-4.52;96.29
77877;BME280;67251;50.844;7.978;2023-12-04T02:26:34;98731.72;;;-4.53;96.47
77877;BME280;67251;50.844;7.978;2023-12-04T02:29:07;98730.91;;;-4.54;96.08
77877;BME280;67251;50.844;7.978;2023-12-04T02:31:39;98719.84;;;-4.57;96.24
77877;BME280;67251;50.844;7.978;2023-12-04T02:34:06;98717.56;;;-4.62;96.78
77877;BME280;67251;50.844;7.978;2023-12-04T02:36:34;98715.78;;;-4.62;97.19
77877;BME280;67251;50.844;7.978;2023-12-04T02:39:00;98715.44;;;-4.57;97.04
77877;BME280;67251;50.844;7.978;2023-12-04T02:41:26;98714.91;;;-4.49;96.94
77877;BME280;67251;50.844;7.978;2023-12-04T02:43:52;98705.91;;;-4.45;96.73
77877;BME280;67251;50.844;7.978;2023-12-04T02:46:17;98712.47;;;-4.40;96.70
77877;BME280;67251;50.844;7.978;2023-12-04T02:48:43;98699.91;;;-4.34;96.25
77877;BME280;67251;50.844;7.978;2023-12-04T02:51:10;98699.47;;;-4.28;95.33
77877;BME280;67251;50.844;7.978;2023-12-04T02:53:35;98695.59;;;-4.23;95.12
77877;BME280;67251;50.844;7.978;2023-12-04T02:56:00;98692.75;;;-4.20;93.66
77877;BME280;67251;50.844;7.978;2023-12-04T02:58:26;98683.97;;;-4.19;94.36
77877;BME280;67251;50.844;7.978;2023-12-04T03:00:52;98670.19;;;-4.21;94.61
77877;BME280;67251;50.844;7.978;2023-12-04T03:03:18;98671.13;;;-4.22;94.86
77877;BME280;67251;50.844;7.978;2023-12-04T03:05:43;98664.47;;;-4.26;95.42
77877;BME280;67251;50.844;7.978;2023-12-04T03:08:08;98663.84;;;-4.29;95.28
77877;BME280;67251;50.844;7.978;2023-12-04T03:10:34;98655.63;;;-4.36;95.30
77877;BME280;67251;50.844;7.978;2023-12-04T03:12:59;98650.97;;;-4.44;95.80
77877;BME280;67251;50.844;7.978;2023-12-04T03:15:24;98656.75;;;-4.51;96.00
77877;BME280;67251;50.844;7.978;2023-12-04T03:17:50;98646.03;;;-4.59;96.61
77877;BME280;67251;50.844;7.978;2023-12-04T03:20:15;98645.28;;;-4.62;96.74
77877;BME280;67251;50.844;7.978;2023-12-04T03:22:40;98640.31;;;-4.65;96.84
77877;BME280;67251;50.844;7.978;2023-12-04T03:25:06;98635.28;;;-4.68;96.94
77877;BME280;67251;50.844;7.978;2023-12-04T03:27:31;98637.19;;;-4.70;97.16
77877;BME280;67251;50.844;7.978;2023-12-04T03:29:57;98636.69;;;-4.75;97.66
77877;BME280;67251;50.844;7.978;2023-12-04T03:32:22;98626.47;;;-4.78;97.97
77877;BME280;67251;50.844;7.978;2023-12-04T03:34:47;98622.19;;;-4.79;97.93
77877;BME280;67251;50.844;7.978;2023-12-04T03:37:13;98615.41;;;-4.81;98.21
77877;BME280;67251;50.844;7.978;2023-12-04T03:39:38;98611.97;;;-4.82;98.41
77877;BME280;67251;50.844;7.978;2023-12-04T03:42:04;98619.47;;;-4.77;98.30
77877;BME280;67251;50.844;7.978;2023-12-04T03:44:30;98610.69;;;-4.76;98.00
77877;BME280;67251;50.844;7.978;2023-12-04T03:46:55;98609.03;;;-4.77;98.54
77877;BME280;67251;50.844;7.978;2023-12-04T03:49:21;98608.97;;;-4.65;96.53
77877;BME280;67251;50.844;7.978;2023-12-04T03:51:46;98600.56;;;-4.57;95.88
77877;BME280;67251;50.844;7.978;2023-12-04T03:54:11;98603.91;;;-4.55;95.52
77877;BME280;67251;50.844;7.978;2023-12-04T03:56:38;98599.75;;;-4.57;95.56
77877;BME280;67251;50.844;7.978;2023-12-04T03:59:04;98602.00;;;-4.53;94.85
77877;BME280;67251;50.844;7.978;2023-12-04T04:01:29;98593.47;;;-4.55;94.97
77877;BME280;67251;50.844;7.978;2023-12-04T04:03:55;98594.31;;;-4.54;94.36
77877;BME280;67251;50.844;7.978;2023-12-04T04:06:20;98593.94;;;-4.61;94.79
77877;BME280;67251;50.844;7.978;2023-12-04T04:08:45;98591.66;;;-4.66;95.42
77877;BME280;67251;50.844;7.978;2023-12-04T04:11:11;98590.22;;;-4.70;95.92
77877;BME280;67251;50.844;7.978;2023-12-04T04:13:37;98591.41;;;-4.63;95.62
77877;BME280;67251;50.844;7.978;2023-12-04T04:16:02;98584.66;;;-4.65;95.34
77877;BME280;67251;50.844;7.978;2023-12-04T04:18:27;98586.19;;;-4.63;95.14
77877;BME280;67251;50.844;7.978;2023-12-04T04:20:53;98584.53;;;-4.64;95.34
77877;BME280;67251;50.844;7.978;2023-12-04T04:23:18;98586.44;;;-4.66;95.46
77877;BME280;67251;50.844;7.978;2023-12-04T04:25:43;98582.97;;;-4.66;94.92
77877;BME280;67251;50.844;7.978;2023-12-04T04:28:09;98577.88;;;-4.68;95.09
77877;BME280;67251;50.844;7.978;2023-12-04T04:30:34;98582.13;;;-4.67;95.44
77877;BME280;67251;50.844;7.978;2023-12-04T04:32:59;98583.69;;;-4.64;94.83
77877;BME280;67251;50.844;7.978;2023-12-04T04:35:25;98573.72;;;-4.70;95.42
77877;BME280;67251;50.844;7.978;2023-12-04T04:37:50;98576.22;;;-4.69;95.09
77877;BME280;67251;50.844;7.978;2023-12-04T04:40:16;98580.34;;;-4.66;95.50
77877;BME280;67251;50.844;7.978;2023-12-04T04:42:41;98581.44;;;-4.69;95.68
77877;BME280;67251;50.844;7.978;2023-12-04T04:45:07;98574.53;;;-4.70;95.75
77877;BME280;67251;50.844;7.978;2023-12-04T04:47:32;98569.22;;;-4.68;96.12
77877;BME280;67251;50.844;7.978;2023-12-04T04:49:58;98573.59;;;-4.69;96.05
77877;BME280;67251;50.844;7.978;2023-12-04T04:52:23;98564.09;;;-4.70;96.26
77877;BME280;67251;50.844;7.978;2023-12-04T04:54:49;98562.66;;;-4.74;96.37
77877;BME280;67251;50.844;7.978;2023-12-04T04:57:14;98560.88;;;-4.73;96.14
77877;BME280;67251;50.844;7.978;2023-12-04T04:59:39;98564.31;;;-4.73;95.64
77877;BME280;67251;50.844;7.978;2023-12-04T05:02:05;98564.66;;;-4.77;95.88
77877;BME280;67251;50.844;7.978;2023-12-04T05:04:30;98568.44;;;-4.81;96.00
77877;BME280;67251;50.844;7.978;2023-12-04T05:06:55;98564.28;;;-4.84;96.40
77877;BME280;67251;50.844;7.978;2023-12-04T05:09:21;98559.28;;;-4.87;96.41
77877;BME280;67251;50.844;7.978;2023-12-04T05:11:46;98555.97;;;-4.89;96.14
77877;BME280;67251;50.844;7.978;2023-12-04T05:14:11;98558.66;;;-4.91;96.29
77877;BME280;67251;50.844;7.978;2023-12-04T05:16:37;98564.00;;;-4.92;95.78
77877;BME280;67251;50.844;7.978;2023-12-04T05:19:02;98560.44;;;-4.91;95.47
77877;BME280;67251;50.844;7.978;2023-12-04T05:21:27;98552.72;;;-4.93;95.39
77877;BME280;67251;50.844;7.978;2023-12-04T05:23:53;98547.84;;;-4.97;95.52
77877;BME280;67251;50.844;7.978;2023-12-04T05:26:19;98558.03;;;-4.94;95.24
77877;BME280;67251;50.844;7.978;2023-12-04T05:28:44;98559.22;;;-4.98;95.31
77877;BME280;67251;50.844;7.978;2023-12-04T05:31:09;98551.63;;;-5.01;95.24
77877;BME280;67251;50.844;7.978;2023-12-04T05:33:35;98549.84;;;-5.01;95.06
77877;BME280;67251;50.844;7.978;2023-12-04T05:36:00;98547.44;;;-5.04;95.63
77877;BME280;67251;50.844;7.978;2023-12-04T05:38:26;98554.09;;;-5.00;94.54
77877;BME280;67251;50.844;7.978;2023-12-04T05:40:51;98555.66;;;-4.97;94.01
77877;BME280;67251;50.844;7.978;2023-12-04T05:43:16;98554.94;;;-4.99;94.33
77877;BME280;67251;50.844;7.978;2023-12-04T05:45:43;98551.72;;;-5.03;95.12
77877;BME280;67251;50.844;7.978;2023-12-04T05:48:09;98558.59;;;-5.02;94.15
77877;BME280;67251;50.844;7.978;2023-12-04T05:50:34;98550.16;;;-5.05;93.86
77877;BME280;67251;50.844;7.978;2023-12-04T05:53:00;98539.72;;;-5.05;93.67
77877;BME280;67251;50.844;7.978;2023-12-04T05:55:25;98541.72;;;-5.09;94.35
77877;BME280;67251;50.844;7.978;2023-12-04T05:57:50;98529.63;;;-5.10;94.13
77877;BME280;67251;50.844;7.978;2023-12-04T06:00:16;98526.31;;;-5.12;93.43
77877;BME280;67251;50.844;7.978;2023-12-04T06:02:43;98525.25;;;-5.09;93.15
77877;BME280;67251;50.844;7.978;2023-12-04T06:05:08;98520.50;;;-5.04;92.32
77877;BME280;67251;50.844;7.978;2023-12-04T06:07:34;98522.63;;;-5.09;92.80
77877;BME280;67251;50.844;7.978;2023-12-04T06:10:00;98522.25;;;-5.16;93.04
77877;BME280;67251;50.844;7.978;2023-12-04T06:12:25;98521.50;;;-5.18;93.27
77877;BME280;67251;50.844;7.978;2023-12-04T06:14:51;98530.06;;;-5.16;92.66
77877;BME280;67251;50.844;7.978;2023-12-04T06:17:16;98523.53;;;-5.22;93.23
77877;BME280;67251;50.844;7.978;2023-12-04T06:19:42;98529.66;;;-5.23;93.01
77877;BME280;67251;50.844;7.978;2023-12-04T06:22:07;98528.25;;;-5.27;93.31
77877;BME280;67251;50.844;7.978;2023-12-04T06:24:33;98530.31;;;-5.32;93.66
77877;BME280;67251;50.844;7.978;2023-12-04T06:26:58;98535.78;;;-5.35;93.74
77877;BME280;67251;50.844;7.978;2023-12-04T06:29:24;98538.59;;;-5.38;94.44
77877;BME280;67251;50.844;7.978;2023-12-04T06:31:50;98532.88;;;-5.43;94.47
77877;BME280;67251;50.844;7.978;2023-12-04T06:34:15;98531.41;;;-5.47;94.98
77877;BME280;67251;50.844;7.978;2023-12-04T06:36:41;98528.09;;;-5.49;94.82
77877;BME280;67251;50.844;7.978;2023-12-04T06:39:11;98528.19;;;-5.51;95.45
77877;BME280;67251;50.844;7.978;2023-12-04T06:41:38;98520.69;;;-5.55;95.37
77877;BME280;67251;50.844;7.978;2023-12-04T06:44:04;98523.63;;;-5.60;95.43
77877;BME280;67251;50.844;7.978;2023-12-04T06:46:35;98518.53;;;-5.61;95.46
77877;BME280;67251;50.844;7.978;2023-12-04T06:49:04;98514.13;;;-5.61;95.13
77877;BME280;67251;50.844;7.978;2023-12-04T06:51:30;98514.97;;;-5.60;95.52
77877;BME280;67251;50.844;7.978;2023-12-04T06:53:55;98513.53;;;-5.64;95.54
77877;BME280;67251;50.844;7.978;2023-12-04T06:56:20;98513.00;;;-5.70;95.23
77877;BME280;67251;50.844;7.978;2023-12-04T06:58:46;98506.56;;;-5.64;95.92
77877;BME280;67251;50.844;7.978;2023-12-04T07:01:11;98504.84;;;-5.65;96.17
77877;BME280;67251;50.844;7.978;2023-12-04T07:03:36;98503.53;;;-5.71;97.03
77877;BME280;67251;50.844;7.978;2023-12-04T07:06:02;98491.13;;;-5.67;98.22
77877;BME280;67251;50.844;7.978;2023-12-04T07:08:27;98487.25;;;-5.61;98.26
77877;BME280;67251;50.844;7.978;2023-12-04T07:10:53;98482.31;;;-5.53;98.76
77877;BME280;67251;50.844;7.978;2023-12-04T07:13:18;98472.41;;;-5.48;98.26
77877;BME280;67251;50.844;7.978;2023-12-04T07:15:44;98477.41;;;-5.45;98.18
77877;BME280;67251;50.844;7.978;2023-12-04T07:18:09;98478.00;;;-5.42;97.65
77877;BME280;67251;50.844;7.978;2023-12-04T07:20:35;98469.63;;;-5.34;97.70
77877;BME280;67251;50.844;7.978;2023-12-04T07:23:00;98469.19;;;-5.28;97.07
77877;BME280;67251;50.844;7.978;2023-12-04T07:25:25;98459.25;;;-5.23;95.64
77877;BME280;67251;50.844;7.978;2023-12-04T07:27:51;98456.44;;;-5.20;95.57
77877;BME280;67251;50.844;7.978;2023-12-04T07:30:16;98448.47;;;-5.18;95.03
77877;BME280;67251;50.844;7.978;2023-12-04T07:32:42;98451.72;;;-5.15;95.04
77877;BME280;67251;50.844;7.978;2023-12-04T07:35:07;98455.75;;;-5.10;94.40
77877;BME280;67251;50.844;7.978;2023-12-04T07:37:33;98440.72;;;-5.07;94.00
77877;BME280;67251;50.844;7.978;2023-12-04T07:39:58;98446.31;;;-5.00;91.83
77877;BME280;67251;50.844;7.978;2023-12-04T07:42:23;98435.41;;;-4.94;91.79
77877;BME280;67251;50.844;7.978;2023-12-04T07:44:49;98432.47;;;-4.90;91.76
77877;BME280;67251;50.844;7.978;2023-12-04T07:47:14;98431.28;;;-4.85;91.74
77877;BME280;67251;50.844;7.978;2023-12-04T07:49:41;98435.34;;;-4.81;91.20
77877;BME280;67251;50.844;7.978;2023-12-04T07:52:06;98434.16;;;-4.77;90.84
77877;BME280;67251;50.844;7.978;2023-12-04T07:54:32;98432.88;;;-4.72;88.83
77877;BME280;67251;50.844;7.978;2023-12-04T07:56:57;98425.41;;;-4.65;88.79
77877;BME280;67251;50.844;7.978;2023-12-04T07:59:23;98402.28;;;-4.58;88.63
77877;BME280;67251;50.844;7.978;2023-12-04T08:01:48;98391.50;;;-4.54;88.42
77877;BME280;67251;50.844;7.978;2023-12-04T08:04:14;98391.84;;;-4.47;88.42
77877;BME280;67251;50.844;7.978;2023-12-04T08:06:39;98401.00;;;-4.42;87.68
77877;BME280;67251;50.844;7.978;2023-12-04T08:09:05;98396.34;;;-4.38;86.75
77877;BME280;67251;50.844;7.978;2023-12-04T08:11:35;98403.25;;;-4.37;88.11
77877;BME280;67251;50.844;7.978;2023-12-04T08:14:02;98395.91;;;-4.32;87.80
77877;BME280;67251;50.844;7.978;2023-12-04T08:16:27;98394.94;;;-4.20;87.51
77877;BME280;67251;50.844;7.978;2023-12-04T08:18:54;98396.00;;;-4.11;86.39
77877;BME280;67251;50.844;7.978;2023-12-04T08:21:19;98401.47;;;-4.03;85.33
77877;BME280;67251;50.844;7.978;2023-12-04T08:23:45;98409.78;;;-3.98;85.58
77877;BME280;67251;50.844;7.978;2023-12-04T08:26:10;98417.94;;;-3.80;85.41
77877;BME280;67251;50.844;7.978;2023-12-04T08:28:36;98419.38;;;-3.76;84.03
77877;BME280;67251;50.844;7.978;2023-12-04T08:31:03;98411.88;;;-3.69;82.45
77877;BME280;67251;50.844;7.978;2023-12-04T08:33:28;98412.91;;;-3.61;82.40
77877;BME280;67251;50.844;7.978;2023-12-04T08:35:54;98403.06;;;-3.57;81.63
77877;BME280;67251;50.844;7.978;2023-12-04T08:38:19;98409.56;;;-3.51;81.63
77877;BME280;67251;50.844;7.978;2023-12-04T08:40:45;98418.56;;;-3.44;81.36
77877;BME280;67251;50.844;7.978;2023-12-04T08:43:10;98413.00;;;-3.51;80.30
77877;BME280;67251;50.844;7.978;2023-12-04T08:45:35;98409.09;;;-3.56;81.01
77877;BME280;67251;50.844;7.978;2023-12-04T08:48:01;98415.75;;;-3.64;80.81
77877;BME280;67251;50.844;7.978;2023-12-04T08:50:26;98417.31;;;-3.61;80.91
77877;BME280;67251;50.844;7.978;2023-12-04T08:52:51;98413.28;;;-3.65;80.49
77877;BME280;67251;50.844;7.978;2023-12-04T08:55:17;98415.53;;;-3.72;80.32
77877;BME280;67251;50.844;7.978;2023-12-04T08:57:43;98410.44;;;-3.73;80.28
77877;BME280;67251;50.844;7.978;2023-12-04T09:00:09;98408.44;;;-3.81;80.61
77877;BME280;67251;50.844;7.978;2023-12-04T09:02:34;98394.44;;;-3.91;81.56
77877;BME280;67251;50.844;7.978;2023-12-04T09:05:00;98385.66;;;-4.01;81.05
77877;BME280;67251;50.844;7.978;2023-12-04T09:07:26;98377.13;;;-4.03;81.74
77877;BME280;67251;50.844;7.978;2023-12-04T09:09:51;98364.06;;;-4.03;81.84
77877;BME280;67251;50.844;7.978;2023-12-04T09:12:16;98358.81;;;-4.03;81.19
77877;BME280;67251;50.844;7.978;2023-12-04T09:14:42;98372.34;;;-3.98;81.31
77877;BME280;67251;50.844;7.978;2023-12-04T09:17:08;98370.66;;;-3.88;81.85
77877;BME280;67251;50.844;7.978;2023-12-04T09:19:33;98368.06;;;-3.88;79.96
77877;BME280;67251;50.844;7.978;2023-12-04T09:21:59;98374.22;;;-3.78;79.88
77877;BME280;67251;50.844;7.978;2023-12-04T09:24:24;98372.72;;;-3.60;80.05
77877;BME280;67251;50.844;7.978;2023-12-04T09:26:50;98375.34;;;-3.60;79.52
77877;BME280;67251;50.844;7.978;2023-12-04T09:29:15;98373.81;;;-3.62;79.18
77877;BME280;67251;50.844;7.978;2023-12-04T09:31:41;98362.06;;;-3.68;79.34
77877;BME280;67251;50.844;7.978;2023-12-04T09:34:06;98365.41;;;-3.66;79.19
77877;BME280;67251;50.844;7.978;2023-12-04T09:36:33;98373.56;;;-3.59;79.57
77877;BME280;67251;50.844;7.978;2023-12-04T09:38:59;98366.19;;;-3.54;79.88
77877;BME280;67251;50.844;7.978;2023-12-04T09:41:24;98374.38;;;-3.47;78.77
77877;BME280;67251;50.844;7.978;2023-12-04T09:43:50;98363.63;;;-3.44;78.16
77877;BME280;67251;50.844;7.978;2023-12-04T09:46:17;98351.88;;;-3.39;77.99
77877;BME280;67251;50.844;7.978;2023-12-04T09:48:43;98352.69;;;-3.38;79.40
77877;BME280;67251;50.844;7.978;2023-12-04T09:51:09;98349.88;;;-3.25;78.74
77877;BME280;67251;50.844;7.978;2023-12-04T09:53:35;98345.63;;;-3.26;78.81
77877;BME280;67251;50.844;7.978;2023-12-04T09:56:07;98329.34;;;-3.30;78.00
77877;BME280;67251;50.844;7.978;2023-12-04T09:58:33;98335.28;;;-3.28;77.80
77877;BME280;67251;50.844;7.978;2023-12-04T10:01:03;98328.56;;;-3.42;77.99
77877;BME280;67251;50.844;7.978;2023-12-04T10:03:29;98333.56;;;-3.39;78.71
77877;BME280;67251;50.844;7.978;2023-12-04T10:05:55;98328.34;;;-3.18;77.52
77877;BME280;67251;50.844;7.978;2023-12-04T10:08:21;98328.69;;;-3.01;77.07
77877;BME280;67251;50.844;7.978;2023-12-04T10:10:47;98331.06;;;-2.98;76.69
77877;BME280;67251;50.844;7.978;2023-12-04T10:13:12;98331.69;;;-3.06;76.34
77877;BME280;67251;50.844;7.978;2023-12-04T10:15:48;98330.88;;;-3.06;77.06
77877;BME280;67251;50.844;7.978;2023-12-04T10:18:32;98314.34;;;-2.86;76.29
77877;BME280;67251;50.844;7.978;2023-12-04T10:20:58;98312.59;;;-2.76;75.57
77877;BME280;67251;50.844;7.978;2023-12-04T10:26:03;98287.69;;;-2.70;75.32
77877;BME280;67251;50.844;7.978;2023-12-04T10:28:29;98288.09;;;-2.65;76.00
77877;BME280;67251;50.844;7.978;2023-12-04T10:30:55;98285.75;;;-2.68;74.79
77877;BME280;67251;50.844;7.978;2023-12-04T10:33:20;98279.66;;;-2.38;74.28
77877;BME280;67251;50.844;7.978;2023-12-04T10:35:46;98274.72;;;-2.32;74.28
77877;BME280;67251;50.844;7.978;2023-12-04T10:38:12;98269.88;;;-2.26;74.27
77877;BME280;67251;50.844;7.978;2023-12-04T10:40:39;98267.44;;;-2.09;73.27
77877;BME280;67251;50.844;7.978;2023-12-04T10:43:16;98262.78;;;-1.95;73.52
77877;BME280;67251;50.844;7.978;2023-12-04T10:45:42;98255.91;;;-1.77;72.06
77877;BME280;67251;50.844;7.978;2023-12-04T10:48:09;98250.50;;;-1.56;71.28
77877;BME280;67251;50.844;7.978;2023-12-04T10:50:40;98240.38;;;-1.22;70.54
77877;BME280;67251;50.844;7.978;2023-12-04T10:53:07;98242.22;;;-0.95;69.45
77877;BME280;67251;50.844;7.978;2023-12-04T10:55:33;98236.06;;;-1.23;69.57
77877;BME280;67251;50.844;7.978;2023-12-04T10:58:05;98235.38;;;-1.15;69.74
77877;BME280;67251;50.844;7.978;2023-12-04T11:00:34;98233.31;;;-0.74;69.80
77877;BME280;67251;50.844;7.978;2023-12-04T11:03:19;98225.63;;;-0.58;68.11
77877;BME280;67251;50.844;7.978;2023-12-04T11:05:49;98228.09;;;-0.29;67.59
77877;BME280;67251;50.844;7.978;2023-12-04T11:08:17;98208.34;;;-0.15;67.38
77877;BME280;67251;50.844;7.978;2023-12-04T11:10:58;98210.44;;;-0.37;68.46
77877;BME280;67251;50.844;7.978;2023-12-04T11:13:28;98213.50;;;-0.69;68.27
77877;BME280;67251;50.844;7.978;2023-12-04T11:15:58;98205.28;;;-0.84;68.73
77877;BME280;67251;50.844;7.978;2023-12-04T11:18:24;98194.31;;;-0.69;69.08
77877;BME280;67251;50.844;7.978;2023-12-04T11:21:04;98184.91;;;-0.72;69.22
77877;BME280;67251;50.844;7.978;2023-12-04T11:23:31;98187.50;;;-0.99;71.76
77877;BME280;67251;50.844;7.978;2023-12-04T11:25:57;98186.94;;;-0.93;72.35
77877;BME280;67251;50.844;7.978;2023-12-04T11:28:24;98183.03;;;-0.80;72.21
77877;BME280;67251;50.844;7.978;2023-12-04T11:30:51;98178.22;;;-0.66;72.18
77877;BME280;67251;50.844;7.978;2023-12-04T11:33:17;98167.78;;;-0.76;71.35
77877;BME280;67251;50.844;7.978;2023-12-04T11:35:44;98175.28;;;-0.81;71.79
77877;BME280;67251;50.844;7.978;2023-12-04T11:38:13;98163.31;;;-0.93;72.30
77877;BME280;67251;50.844;7.978;2023-12-04T11:40:38;98162.78;;;-0.97;73.73
77877;BME280;67251;50.844;7.978;2023-12-04T11:43:24;98157.47;;;-0.60;73.59
77877;BME280;67251;50.844;7.978;2023-12-04T11:45:49;98149.75;;;-0.43;72.43
77877;BME280;67251;50.844;7.978;2023-12-04T11:48:15;98140.97;;;-0.34;72.45
77877;BME280;67251;50.844;7.978;2023-12-04T11:50:43;98136.63;;;-0.26;73.25
77877;BME280;67251;50.844;7.978;2023-12-04T11:53:10;98135.63;;;-0.24;72.25
77877;BME280;67251;50.844;7.978;2023-12-04T11:55:39;98138.03;;;-0.49;73.32
77877;BME280;67251;50.844;7.978;2023-12-04T11:58:09;98132.69;;;-0.75;75.73
77877;BME280;67251;50.844;7.978;2023-12-04T12:00:35;98132.47;;;-0.91;76.57
77877;BME280;67251;50.844;7.978;2023-12-04T12:03:03;98123.91;;;-1.21;78.22
77877;BME280;67251;50.844;7.978;2023-12-04T12:05:32;98128.88;;;-1.65;81.21
77877;BME280;67251;50.844;7.978;2023-12-04T12:08:08;98126.94;;;-1.63;82.28
77877;BME280;67251;50.844;7.978;2023-12-04T12:10:34;98123.94;;;-1.77;83.24
77877;BME280;67251;50.844;7.978;2023-12-04T12:13:00;98108.78;;;-2.03;84.56
77877;BME280;67251;50.844;7.978;2023-12-04T12:15:27;98112.16;;;-2.30;86.54
77877;BME280;67251;50.844;7.978;2023-12-04T12:17:53;98100.13;;;-2.33;87.38
77877;BME280;67251;50.844;7.978;2023-12-04T12:20:18;98085.94;;;-2.30;87.95
77877;BME280;67251;50.844;7.978;2023-12-04T12:22:47;98088.66;;;-2.02;88.07
77877;BME280;67251;50.844;7.978;2023-12-04T12:25:13;98078.72;;;-1.99;87.27
77877;BME280;67251;50.844;7.978;2023-12-04T12:27:39;98079.97;;;-2.13;87.23
77877;BME280;67251;50.844;7.978;2023-12-04T12:30:05;98072.69;;;-2.19;87.11
77877;BME280;67251;50.844;7.978;2023-12-04T12:32:34;98065.00;;;-2.40;87.73
77877;BME280;67251;50.844;7.978;2023-12-04T12:35:00;98068.97;;;-2.45;87.96
77877;BME280;67251;50.844;7.978;2023-12-04T12:37:26;98063.59;;;-2.44;88.09
77877;BME280;67251;50.844;7.978;2023-12-04T12:39:52;98056.69;;;-2.64;87.75
77877;BME280;67251;50.844;7.978;2023-12-04T12:42:25;98054.22;;;-2.75;87.72
77877;BME280;67251;50.844;7.978;2023-12-04T12:44:50;98064.13;;;-2.79;88.79
77877;BME280;67251;50.844;7.978;2023-12-04T12:47:16;98046.63;;;-2.88;88.12
77877;BME280;67251;50.844;7.978;2023-12-04T12:49:41;98050.94;;;-2.77;89.61
77877;BME280;67251;50.844;7.978;2023-12-04T12:52:07;98045.53;;;-2.95;89.75
77877;BME280;67251;50.844;7.978;2023-12-04T12:54:40;98029.94;;;-2.97;90.01
77877;BME280;67251;50.844;7.978;2023-12-04T12:57:06;98039.47;;;-3.05;91.80
77877;BME280;67251;50.844;7.978;2023-12-04T12:59:32;98031.31;;;-3.12;91.03